createdAt,value
2018-06-05T00:01:03.417Z,29.30
2018-06-05T00:03:36.601Z,25.70
2018-06-05T00:06:14.980Z,31.77
2018-06-05T00:08:47.417Z,31.70
2018-06-05T00:11:20.760Z,31.70
2018-06-05T00:13:52.030Z,28.13
2018-06-05T00:16:20.321Z,31.87
2018-06-05T00:18:48.558Z,30.00
2018-06-05T00:21:23.442Z,30.53
2018-06-05T00:23:51.694Z,29.53
2018-06-05T00:26:24.257Z,31.03
2018-06-05T00:28:52.444Z,30.30
2018-06-05T00:31:30.873Z,30.27
2018-06-05T00:34:02.097Z,29.93
2018-06-05T00:36:33.324Z,29.90
2018-06-05T00:39:01.844Z,28.90
2018-06-05T00:41:30.283Z,25.90
2018-06-05T00:43:58.501Z,24.60
2018-06-05T00:46:29.499Z,26.50
2018-06-05T00:49:00.124Z,27.03
2018-06-05T00:51:42.501Z,24.50
2018-06-05T00:54:15.305Z,23.77
2018-06-05T00:56:48.839Z,23.50
2018-06-05T00:59:17.173Z,23.07
2018-06-05T01:01:51.703Z,23.00
2018-06-05T01:04:20.044Z,23.23
2018-06-05T01:06:54.705Z,27.77
2018-06-05T01:09:22.895Z,23.57
2018-06-05T01:11:54.180Z,26.20
2018-06-05T01:14:25.627Z,25.47
2018-06-05T01:16:57.926Z,26.00
2018-06-05T01:19:26.225Z,25.57
2018-06-05T01:21:54.457Z,22.57
2018-06-05T01:24:29.545Z,26.13
2018-06-05T01:27:10.803Z,25.07
2018-06-05T01:29:39.357Z,25.20
2018-06-05T01:32:07.618Z,26.37
2018-06-05T01:34:35.909Z,24.60
2018-06-05T01:37:04.138Z,24.13
2018-06-05T01:39:38.917Z,24.97
2018-06-05T01:42:07.268Z,25.10
2018-06-05T01:44:41.791Z,24.20
2018-06-05T01:47:10.042Z,25.93
2018-06-05T01:49:45.022Z,24.63
2018-06-05T01:52:13.558Z,22.03
2018-06-05T01:54:41.963Z,22.37
2018-06-05T01:57:10.349Z,21.87
2018-06-05T01:59:38.600Z,24.33
2018-06-05T02:02:19.201Z,21.93
2018-06-05T02:04:47.526Z,20.37
2018-06-05T02:07:16.007Z,21.80
2018-06-05T02:09:46.961Z,23.10
2018-06-05T02:12:15.485Z,21.60
2018-06-05T02:14:46.663Z,22.63
2018-06-05T02:17:15.176Z,19.33
2018-06-05T02:19:43.430Z,20.73
2018-06-05T02:22:18.927Z,20.20
2018-06-05T02:24:55.960Z,22.50
2018-06-05T02:27:30.124Z,18.67
2018-06-05T02:29:58.599Z,22.77
2018-06-05T02:32:26.845Z,23.07
2018-06-05T02:34:55.032Z,22.07
2018-06-05T02:37:29.862Z,18.20
2018-06-05T02:39:58.238Z,20.10
2018-06-05T02:42:35.985Z,18.93
2018-06-05T02:45:04.541Z,24.07
2018-06-05T02:47:35.034Z,20.87
2018-06-05T02:50:03.956Z,22.50
2018-06-05T02:52:35.163Z,19.63
2018-06-05T02:55:03.268Z,22.57
2018-06-05T02:57:31.531Z,22.60
2018-06-05T03:00:04.911Z,21.77
2018-06-05T03:02:39.551Z,24.77
2018-06-05T03:05:08.362Z,21.77
2018-06-05T03:07:39.542Z,24.33
2018-06-05T03:10:07.786Z,22.00
2018-06-05T03:12:39.001Z,24.70
2018-06-05T03:15:19.662Z,22.93
2018-06-05T03:17:52.807Z,22.43
2018-06-05T03:20:23.994Z,27.27
2018-06-05T03:22:52.388Z,21.97
2018-06-05T03:25:20.640Z,21.23
2018-06-05T03:27:55.541Z,25.00
2018-06-05T03:30:23.957Z,22.33
2018-06-05T03:32:52.228Z,25.43
2018-06-05T03:35:20.621Z,19.17
2018-06-05T03:37:53.943Z,21.90
2018-06-05T03:40:28.557Z,19.77
2018-06-05T03:42:59.569Z,17.93
2018-06-05T03:45:30.048Z,22.23
2018-06-05T03:48:00.227Z,21.07
2018-06-05T03:50:28.492Z,19.73
2018-06-05T03:52:59.501Z,22.50
2018-06-05T03:55:37.957Z,20.60
2018-06-05T03:58:09.479Z,21.63
2018-06-05T04:00:41.851Z,22.33
2018-06-05T04:03:21.844Z,23.47
2018-06-05T04:05:54.169Z,24.63
2018-06-05T04:08:22.581Z,23.47
2018-06-05T04:10:54.793Z,21.90
2018-06-05T04:13:25.818Z,19.60
2018-06-05T04:15:54.081Z,21.70
2018-06-05T04:18:26.498Z,19.70
2018-06-05T04:20:57.534Z,23.87
2018-06-05T04:23:35.605Z,23.37
2018-06-05T04:26:04.035Z,23.37
2018-06-05T04:28:32.253Z,20.80
2018-06-05T04:31:07.040Z,22.37
2018-06-05T04:33:35.351Z,21.50
2018-06-05T04:36:13.201Z,23.27
2018-06-05T04:38:43.539Z,21.40
2018-06-05T04:41:11.848Z,22.80
2018-06-05T04:43:40.050Z,23.80
2018-06-05T04:46:15.384Z,24.97
2018-06-05T04:48:55.324Z,25.17
2018-06-05T04:51:23.691Z,23.37
2018-06-05T04:53:52.309Z,23.07
2018-06-05T04:56:20.541Z,24.67
2018-06-05T04:58:51.587Z,22.23
2018-06-05T05:01:22.851Z,22.43
2018-06-05T05:04:07.895Z,20.70
2018-06-05T05:06:42.325Z,22.30
2018-06-05T05:09:10.676Z,24.73
2018-06-05T05:11:45.292Z,22.87
2018-06-05T05:14:13.491Z,22.87
2018-06-05T05:16:49.930Z,20.53
2018-06-05T05:19:21.234Z,22.20
2018-06-05T05:21:54.814Z,24.97
2018-06-05T05:24:29.773Z,20.07
2018-06-05T05:26:58.013Z,25.40
2018-06-05T05:29:31.228Z,23.23
2018-06-05T05:32:07.545Z,22.30
2018-06-05T05:34:38.197Z,24.30
2018-06-05T05:37:11.312Z,28.03
2018-06-05T05:39:49.764Z,23.27
2018-06-05T05:42:25.862Z,22.97
2018-06-05T05:44:54.427Z,26.60
2018-06-05T05:47:22.620Z,24.47
2018-06-05T05:49:53.989Z,23.70
2018-06-05T05:52:33.877Z,21.87
2018-06-05T05:55:02.217Z,24.93
2018-06-05T05:57:30.489Z,23.03
2018-06-05T06:00:02.987Z,23.63
2018-06-05T06:02:31.476Z,25.67
2018-06-05T06:05:02.484Z,20.83
2018-06-05T06:07:33.837Z,24.53
2018-06-05T06:10:04.195Z,22.10
2018-06-05T06:12:32.417Z,22.10
2018-06-05T06:15:00.697Z,23.80
2018-06-05T06:17:35.483Z,22.43
2018-06-05T06:20:03.768Z,22.57
2018-06-05T06:22:36.279Z,22.10
2018-06-05T06:27:42.269Z,20.43
2018-06-05T06:30:10.551Z,21.93
2018-06-05T06:32:45.129Z,20.10
2018-06-05T06:35:16.653Z,18.90
2018-06-05T06:37:44.886Z,19.40
2018-06-05T06:40:17.146Z,21.67
2018-06-05T06:42:48.600Z,22.03
2018-06-05T06:45:19.849Z,24.03
2018-06-05T06:47:48.345Z,19.70
2018-06-05T06:50:16.790Z,19.87
2018-06-05T06:52:45.190Z,22.63
2018-06-05T06:55:13.462Z,20.43
2018-06-05T06:57:51.167Z,21.27
2018-06-05T07:00:19.431Z,19.57
2018-06-05T07:02:52.759Z,19.30
2018-06-05T07:05:25.901Z,19.03
2018-06-05T07:07:59.157Z,20.07
2018-06-05T07:10:27.697Z,19.60
2018-06-05T07:12:58.009Z,21.03
2018-06-05T07:15:26.621Z,18.80
2018-06-05T07:17:55.152Z,20.70
2018-06-05T07:20:23.463Z,23.03
2018-06-05T07:22:51.753Z,19.03
2018-06-05T07:25:24.273Z,20.17
2018-06-05T07:27:52.611Z,18.87
2018-06-05T07:30:28.833Z,20.80
2018-06-05T07:33:06.201Z,22.63
2018-06-05T07:35:39.722Z,25.93
2018-06-05T07:38:13.302Z,24.10
2018-06-05T07:40:45.705Z,19.20
2018-06-05T07:43:16.934Z,19.40
2018-06-05T07:45:57.648Z,19.90
2018-06-05T07:48:33.166Z,20.60
2018-06-05T07:51:05.725Z,18.40
2018-06-05T07:53:33.991Z,21.30
2018-06-05T07:56:08.549Z,20.23
2018-06-05T07:58:45.401Z,19.43
2018-06-05T08:01:13.826Z,23.27
2018-06-05T08:03:42.060Z,21.17
2018-06-05T08:06:15.815Z,25.27
2018-06-05T08:08:44.156Z,21.67
2018-06-05T08:11:12.425Z,22.47
2018-06-05T08:13:50.307Z,22.87
2018-06-05T08:16:18.628Z,21.63
2018-06-05T08:18:47.123Z,22.13
2018-06-05T08:21:15.549Z,19.87
2018-06-05T08:23:43.878Z,26.83
2018-06-05T08:26:15.119Z,21.00
2018-06-05T08:28:47.633Z,21.83
2018-06-05T08:31:22.184Z,19.70
2018-06-05T08:33:56.819Z,20.97
2018-06-05T08:36:25.010Z,21.80
2018-06-05T08:39:01.362Z,21.80
2018-06-05T08:41:32.685Z,21.70
2018-06-05T08:44:09.604Z,20.80
2018-06-05T08:46:37.865Z,17.43
2018-06-05T08:49:10.376Z,19.83
2018-06-05T08:51:43.433Z,20.10
2018-06-05T08:54:14.849Z,18.37
2018-06-05T08:56:45.197Z,18.00
2018-06-05T08:59:13.366Z,17.07
2018-06-05T09:05:18.055Z,13.23
2018-06-05T09:07:46.460Z,13.27
2018-06-05T09:10:14.661Z,14.20
2018-06-05T09:12:46.100Z,13.60
2018-06-05T09:15:22.793Z,16.23
2018-06-05T09:17:51.070Z,13.83
2018-06-05T09:20:28.938Z,12.27
2018-06-05T09:23:16.873Z,14.37
2018-06-05T09:25:45.526Z,14.47
2018-06-05T09:28:13.782Z,13.57
2018-06-05T09:30:46.568Z,13.90
2018-06-05T09:33:15.241Z,14.27
2018-06-05T09:35:43.814Z,18.00
2018-06-05T09:38:17.520Z,14.53
2018-06-05T09:40:52.150Z,15.07
2018-06-05T09:43:20.441Z,14.40
2018-06-05T09:45:51.650Z,14.53
2018-06-05T09:48:23.015Z,15.47
2018-06-05T09:50:52.013Z,13.77
2018-06-05T09:53:22.416Z,13.27
2018-06-05T09:55:53.625Z,13.67
2018-06-05T09:58:29.863Z,14.40
2018-06-05T10:00:58.250Z,15.03
2018-06-05T10:03:26.498Z,14.43
2018-06-05T10:05:54.802Z,13.67
2018-06-05T10:08:25.988Z,13.43
2018-06-05T10:11:05.998Z,14.70
2018-06-05T10:13:34.232Z,15.20
2018-06-05T10:16:08.827Z,14.97
2018-06-05T10:18:37.128Z,14.90
2018-06-05T10:21:11.996Z,15.70
2018-06-05T10:23:40.241Z,19.53
2018-06-05T10:26:08.644Z,15.20
2018-06-05T10:28:41.094Z,15.43
2018-06-05T10:31:09.285Z,16.23
2018-06-05T10:33:38.380Z,14.83
2018-06-05T10:36:06.837Z,15.73
2018-06-05T10:38:35.457Z,16.57
2018-06-05T10:41:03.806Z,14.93
2018-06-05T10:43:32.299Z,15.17
2018-06-05T10:46:00.630Z,18.63
2018-06-05T10:48:33.427Z,14.63
2018-06-05T10:51:01.926Z,15.27
2018-06-05T10:53:30.518Z,16.07
2018-06-05T10:56:01.464Z,15.50
2018-06-05T10:58:36.055Z,15.00
2018-06-05T11:01:04.685Z,15.23
2018-06-05T11:03:32.943Z,14.97
2018-06-05T11:06:07.668Z,16.40
2018-06-05T11:08:35.939Z,14.70
2018-06-05T11:11:07.770Z,15.07
2018-06-05T11:13:35.961Z,14.93
2018-06-05T11:16:09.474Z,15.43
2018-06-05T11:18:37.746Z,17.00
2018-06-05T11:21:13.038Z,14.53
2018-06-05T11:23:43.020Z,16.80
2018-06-05T11:26:12.922Z,15.50
2018-06-05T11:28:43.799Z,16.20
2018-06-05T11:31:12.106Z,17.67
2018-06-05T11:33:41.220Z,15.40
2018-06-05T11:36:10.228Z,14.17
2018-06-05T11:38:43.710Z,16.23
2018-06-05T11:41:13.965Z,13.27
2018-06-05T11:43:46.684Z,13.67
2018-06-05T11:46:14.968Z,14.33
2018-06-05T11:48:46.037Z,16.00
2018-06-05T11:51:18.363Z,13.63
2018-06-05T11:53:46.662Z,14.60
2018-06-05T11:56:14.860Z,14.10
2018-06-05T11:58:50.280Z,13.40
2018-06-05T12:01:28.210Z,14.73
2018-06-05T12:03:56.813Z,14.70
2018-06-05T12:06:25.299Z,16.07
2018-06-05T12:08:53.752Z,14.27
2018-06-05T12:11:22.233Z,13.47
2018-06-05T12:13:50.510Z,17.13
2018-06-05T12:16:18.888Z,17.00
2018-06-05T12:19:02.659Z,13.97
2018-06-05T12:21:31.119Z,15.43
2018-06-05T12:23:59.581Z,14.80
2018-06-05T12:26:28.009Z,13.37
2018-06-05T12:28:56.229Z,13.67
2018-06-05T12:31:31.079Z,15.03
2018-06-05T12:33:59.310Z,14.47
2018-06-05T12:36:27.717Z,15.73
2018-06-05T12:39:00.212Z,15.77
2018-06-05T12:41:32.645Z,14.90
2018-06-05T12:44:05.967Z,13.23
2018-06-05T12:46:40.678Z,13.03
2018-06-05T12:49:09.079Z,13.20
2018-06-05T12:51:42.522Z,13.27
2018-06-05T12:54:13.189Z,12.70
2018-06-05T12:56:42.274Z,13.47
2018-06-05T12:59:17.628Z,12.77
2018-06-05T13:01:53.174Z,13.10
2018-06-05T13:04:27.712Z,14.07
2018-06-05T13:07:04.946Z,11.87
2018-06-05T13:09:37.998Z,11.77
2018-06-05T13:12:08.407Z,13.17
2018-06-05T13:14:36.795Z,12.53
2018-06-05T13:17:05.841Z,13.27
2018-06-05T13:19:47.868Z,13.13
2018-06-05T13:22:20.035Z,12.93
2018-06-05T13:24:48.308Z,13.93
2018-06-05T13:27:23.263Z,15.10
2018-06-05T13:29:53.509Z,14.23
2018-06-05T13:32:21.752Z,15.63
2018-06-05T13:34:55.266Z,12.20
2018-06-05T13:37:31.089Z,14.63
2018-06-05T13:39:59.094Z,12.17
2018-06-05T13:42:33.691Z,12.47
2018-06-05T13:45:04.610Z,14.77
2018-06-05T13:47:32.745Z,16.23
2018-06-05T13:50:00.751Z,14.40
2018-06-05T13:52:38.758Z,18.83
2018-06-05T13:55:06.790Z,13.50
2018-06-05T14:00:20.117Z,14.50
2018-06-05T14:02:48.120Z,13.57
2018-06-05T14:05:28.676Z,15.27
2018-06-05T14:07:59.490Z,12.27
2018-06-05T14:10:27.463Z,16.67
2018-06-05T14:12:59.673Z,15.37
2018-06-05T14:15:27.869Z,14.60
2018-06-05T14:17:55.915Z,15.67
2018-06-05T14:20:28.197Z,15.20
2018-06-05T14:22:56.394Z,15.53
2018-06-05T14:25:24.410Z,14.37
2018-06-05T14:27:55.213Z,16.00
2018-06-05T14:30:25.308Z,12.97
2018-06-05T14:32:55.409Z,16.30
2018-06-05T14:35:23.678Z,13.97
2018-06-05T14:37:54.588Z,16.20
2018-06-05T14:40:25.206Z,14.90
2018-06-05T14:43:03.437Z,15.37
2018-06-05T14:45:31.509Z,17.40
2018-06-05T14:48:06.060Z,13.73
2018-06-05T14:50:34.112Z,14.00
2018-06-05T14:53:04.465Z,21.80
2018-06-05T14:55:34.685Z,14.20
2018-06-05T14:58:02.718Z,16.30
2018-06-05T15:00:35.770Z,17.37
2018-06-05T15:03:03.954Z,17.00
2018-06-05T15:05:31.989Z,18.00
2018-06-05T15:08:10.158Z,18.50
2018-06-05T15:10:38.163Z,17.17
2018-06-05T15:13:10.562Z,17.83
2018-06-05T15:15:43.665Z,14.40
2018-06-05T15:18:12.034Z,16.97
2018-06-05T15:20:40.294Z,18.77
2018-06-05T15:23:08.581Z,13.80
2018-06-05T15:25:43.314Z,12.80
2018-06-05T15:28:11.772Z,15.60
2018-06-05T15:30:39.946Z,13.13
2018-06-05T15:33:08.953Z,15.70
2018-06-05T15:35:37.238Z,13.47
2018-06-05T15:38:05.595Z,16.67
2018-06-05T15:40:38.046Z,17.97
2018-06-05T15:43:12.574Z,17.20
2018-06-05T15:45:45.801Z,15.13
2018-06-05T15:48:18.867Z,16.70
2018-06-05T15:50:49.149Z,14.87
2018-06-05T15:53:17.349Z,14.67
2018-06-05T15:55:48.541Z,14.93
2018-06-05T15:58:28.112Z,12.30
2018-06-05T16:00:59.060Z,15.13
2018-06-05T16:03:27.034Z,15.47
2018-06-05T16:06:00.293Z,17.43
2018-06-05T16:08:31.204Z,13.13
2018-06-05T16:11:09.462Z,14.60
2018-06-05T16:13:43.946Z,16.00
2018-06-05T16:16:14.718Z,14.87
2018-06-05T16:18:42.750Z,12.80
2018-06-05T16:21:14.913Z,16.27
2018-06-05T16:23:42.924Z,17.10
2018-06-05T16:26:17.259Z,16.40
2018-06-05T16:28:49.120Z,14.10
2018-06-05T16:31:17.443Z,15.33
2018-06-05T16:33:48.567Z,17.43
2018-06-05T16:36:20.928Z,14.03
2018-06-05T16:39:01.569Z,14.77
2018-06-05T16:41:32.556Z,14.93
2018-06-05T16:44:01.370Z,13.30
2018-06-05T16:46:34.568Z,16.57
2018-06-05T16:49:02.794Z,16.33
2018-06-05T16:51:31.046Z,14.97
2018-06-05T16:54:06.462Z,19.03
2018-06-05T16:56:39.636Z,15.60
2018-06-05T16:59:10.154Z,16.43
2018-06-05T17:01:41.870Z,14.10
2018-06-05T17:04:22.782Z,16.17
2018-06-05T17:06:50.948Z,15.57
2018-06-05T17:09:19.235Z,16.67
2018-06-05T17:11:51.621Z,14.50
2018-06-05T17:14:24.314Z,15.40
2018-06-05T17:16:55.309Z,15.83
2018-06-05T17:19:26.964Z,13.07
2018-06-05T17:22:00.151Z,15.73
2018-06-05T17:24:30.489Z,16.90
2018-06-05T17:26:58.851Z,14.63
2018-06-05T17:29:27.226Z,18.37
2018-06-05T17:31:55.496Z,18.67
2018-06-05T17:34:26.442Z,13.40
2018-06-05T17:36:54.814Z,12.37
2018-06-05T17:39:23.220Z,17.43
2018-06-05T17:41:55.584Z,16.83
2018-06-05T17:44:33.048Z,13.67
2018-06-05T17:47:06.358Z,13.33
2018-06-05T17:49:41.604Z,15.67
2018-06-05T17:52:11.951Z,17.53
2018-06-05T17:54:42.951Z,13.87
2018-06-05T17:57:11.028Z,13.40
2018-06-05T17:59:39.063Z,12.43
2018-06-05T18:02:07.177Z,17.20
2018-06-05T18:04:47.977Z,16.90
2018-06-05T18:07:16.003Z,14.17
2018-06-05T18:09:46.796Z,12.50
2018-06-05T18:12:19.371Z,14.93
2018-06-05T18:14:47.356Z,16.87
2018-06-05T18:17:17.623Z,15.30
2018-06-05T18:19:45.686Z,12.27
2018-06-05T18:22:15.991Z,28.83
2018-06-05T18:24:49.117Z,26.53
2018-06-05T18:27:19.299Z,16.93
2018-06-05T18:29:47.315Z,25.27
2018-06-05T18:32:18.216Z,23.67
2018-06-05T18:34:46.618Z,15.03
2018-06-05T18:37:17.508Z,18.50
2018-06-05T18:39:45.547Z,12.87
2018-06-05T18:42:25.272Z,28.50
2018-06-05T18:44:53.273Z,19.00
2018-06-05T18:47:25.841Z,17.70
2018-06-05T18:50:07.719Z,13.97
2018-06-05T18:52:35.834Z,15.27
2018-06-05T18:55:06.699Z,19.20
2018-06-05T18:57:34.729Z,19.40
2018-06-05T19:00:09.672Z,23.07
2018-06-05T19:02:37.886Z,20.03
2018-06-05T19:05:06.186Z,26.53
2018-06-05T19:07:38.642Z,16.03
2018-06-05T19:10:13.488Z,15.70
2018-06-05T19:12:41.937Z,15.40
2018-06-05T19:15:10.402Z,15.80
2018-06-05T19:17:38.620Z,20.50
2018-06-05T19:20:14.726Z,17.73
2018-06-05T19:22:55.602Z,16.37
2018-06-05T19:25:23.841Z,15.07
2018-06-05T19:27:57.939Z,14.30
2018-06-05T19:30:29.202Z,15.93
2018-06-05T19:32:57.539Z,15.07
2018-06-05T19:35:25.824Z,17.93
2018-06-05T19:37:58.504Z,16.57
2018-06-05T19:40:26.774Z,17.73
2018-06-05T19:42:57.766Z,17.37
2018-06-05T19:45:28.046Z,17.70
2018-06-05T19:47:56.545Z,14.60
2018-06-05T19:50:24.898Z,13.57
2018-06-05T19:52:53.157Z,15.90
2018-06-05T19:55:27.927Z,15.43
2018-06-05T19:57:56.405Z,15.13
2018-06-05T20:00:24.776Z,15.53
2018-06-05T20:02:53.125Z,18.40
2018-06-05T20:05:27.670Z,17.33
2018-06-05T20:08:01.820Z,14.03
2018-06-05T20:10:35.093Z,17.17
2018-06-05T20:13:06.265Z,15.17
2018-06-05T20:15:34.523Z,19.77
2018-06-05T20:18:07.071Z,17.27
2018-06-05T20:20:35.311Z,19.60
2018-06-05T20:23:10.910Z,20.10
2018-06-05T20:25:41.138Z,20.57
2018-06-05T20:28:13.813Z,18.73
2018-06-05T20:30:51.264Z,16.20
2018-06-05T20:33:29.034Z,20.37
2018-06-05T20:35:57.455Z,20.37
2018-06-05T20:38:25.740Z,18.67
2018-06-05T20:40:54.229Z,19.00
2018-06-05T20:43:22.486Z,17.07
2018-06-05T20:45:56.848Z,19.87
2018-06-05T20:48:34.502Z,21.37
2018-06-05T20:51:10.013Z,19.37
2018-06-05T20:53:38.237Z,23.20
2018-06-05T20:56:12.947Z,24.00
2018-06-05T20:58:41.296Z,18.47
2018-06-05T21:01:16.565Z,17.63
2018-06-05T21:03:50.156Z,19.00
2018-06-05T21:06:25.437Z,20.00
2018-06-05T21:08:58.862Z,22.60
2018-06-05T21:11:32.126Z,22.63
2018-06-05T21:14:10.450Z,18.70
2018-06-05T21:16:40.707Z,18.57
2018-06-05T21:19:08.871Z,19.97
2018-06-05T21:21:43.235Z,22.50
2018-06-05T21:24:18.812Z,19.27
2018-06-05T21:26:53.473Z,22.90
2018-06-05T21:29:21.656Z,23.23
2018-06-05T21:31:54.807Z,18.17
2018-06-05T21:37:08.054Z,22.87
2018-06-05T21:39:41.300Z,17.33
2018-06-05T21:42:19.224Z,18.00
2018-06-05T21:44:47.452Z,15.33
2018-06-05T21:47:18.433Z,23.50
2018-06-05T21:49:48.834Z,21.60
2018-06-05T21:52:17.229Z,17.53
2018-06-05T21:54:45.721Z,22.60
2018-06-05T21:57:13.985Z,18.37
2018-06-05T21:59:42.265Z,15.10
2018-06-05T22:02:16.639Z,17.70
2018-06-05T22:04:48.918Z,20.47
2018-06-05T22:07:27.688Z,20.80
2018-06-05T22:10:01.052Z,18.50
2018-06-05T22:12:29.362Z,16.90
2018-06-05T22:15:02.505Z,17.37
2018-06-05T22:17:30.743Z,19.23
2018-06-05T22:19:58.958Z,20.67
2018-06-05T22:22:34.004Z,18.40
2018-06-05T22:25:04.303Z,17.93
2018-06-05T22:27:32.493Z,17.13
2018-06-05T22:30:07.561Z,16.70
2018-06-05T22:32:40.804Z,17.80
2018-06-05T22:35:09.031Z,17.53
2018-06-05T22:37:37.251Z,19.63
2018-06-05T22:40:11.712Z,18.47
2018-06-05T22:42:45.090Z,14.50
2018-06-05T22:45:16.239Z,19.30
2018-06-05T22:47:46.861Z,20.93
2018-06-05T22:50:18.148Z,17.60
2018-06-05T22:52:46.562Z,15.93
2018-06-05T22:55:14.785Z,15.20
2018-06-05T22:57:46.122Z,18.63
2018-06-05T23:00:19.903Z,17.40
2018-06-05T23:02:48.118Z,22.53
2018-06-05T23:05:27.856Z,16.43
2018-06-05T23:07:56.137Z,17.60
2018-06-05T23:10:27.160Z,15.83
2018-06-05T23:13:00.795Z,18.53
2018-06-05T23:15:33.999Z,18.47
2018-06-05T23:18:13.899Z,21.33
2018-06-05T23:20:42.180Z,25.43
2018-06-05T23:23:13.432Z,19.83
2018-06-05T23:25:44.940Z,19.00
2018-06-05T23:28:16.031Z,17.57
2018-06-05T23:30:44.392Z,20.97
2018-06-05T23:33:12.690Z,21.77
2018-06-05T23:35:45.808Z,20.80
2018-06-05T23:38:17.057Z,22.10
2018-06-05T23:40:45.483Z,25.87
2018-06-05T23:43:13.849Z,19.60
2018-06-05T23:45:42.048Z,15.80
2018-06-05T23:48:24.059Z,24.70
2018-06-05T23:51:02.566Z,22.83
2018-06-05T23:53:44.653Z,16.77
2018-06-05T23:56:13.126Z,21.63
2018-06-05T23:58:44.575Z,29.07
